Time;durP1;ratioP1;P1;durP2;ratioP2;P2;SDS_P1;SDS_P2;PMS_P1;PMS_P2;Temp;Humidity;BMP_temperature;BMP_pressure;BME280_temperature;BME280_humidity;BME280_pressure;Samples;Min_cycle;Max_cycle;Signal;HPM_P1;HPM_P2
2022/12/27 00:00:15;;;;;;;144.20;25.20;;;;;;;5.16;92.29;98693.95;87196;1315;25197;-83
2022/12/27 00:02:37;;;;;;;93.50;23.50;;;;;;;5.12;92.34;98689.38;87254;1283;22622;-85
2022/12/27 00:04:38;;;;;;;30.70;19.80;;;;;;;5.09;92.32;98693.26;87049;1293;98095;-87
2022/12/27 00:06:40;;;;;;;36.40;20.30;;;;;;;5.07;92.19;98689.51;87065;1310;22538;-85
2022/12/27 00:08:44;;;;;;;115.00;26.10;;;;;;;5.05;92.24;98685.75;87278;1320;22539;-87
2022/12/27 00:10:45;;;;;;;58.10;20.50;;;;;;;5.02;92.46;98685.66;87215;1311;98145;-87
2022/12/27 00:12:47;;;;;;;37.70;20.50;;;;;;;4.99;92.30;98678.95;87182;1318;22607;-87
2022/12/27 00:14:49;;;;;;;31.90;19.60;;;;;;;4.99;92.33;98681.03;87293;1315;22489;-87
2022/12/27 00:16:50;;;;;;;47.60;19.60;;;;;;;4.95;92.37;98675.77;87479;1319;98123;-86
2022/12/27 00:18:52;;;;;;;85.20;24.90;;;;;;;4.93;92.30;98671.80;86963;1316;22473;-86
2022/12/27 00:20:58;;;;;;;37.90;21.50;;;;;;;4.93;92.31;98666.94;87285;1313;22628;-85
2022/12/27 00:23:00;;;;;;;25.70;15.70;;;;;;;4.92;92.41;98656.52;87161;1316;98088;-85
2022/12/27 00:25:02;;;;;;;29.50;17.40;;;;;;;4.91;92.38;98660.02;87017;1315;22821;-85
2022/12/27 00:27:03;;;;;;;74.30;19.50;;;;;;;4.89;92.25;98660.95;87061;1311;22538;-85
2022/12/27 00:29:05;;;;;;;31.20;19.60;;;;;;;4.87;92.31;98662.96;87055;1306;98205;-85
2022/12/27 00:31:08;;;;;;;28.30;17.20;;;;;;;4.84;92.35;98659.21;87236;1316;22428;-85
2022/12/27 00:33:09;;;;;;;50.90;18.10;;;;;;;4.81;92.09;98661.05;87187;1316;22486;-85
2022/12/27 00:35:11;;;;;;;38.90;19.40;;;;;;;4.78;92.18;98659.20;87180;1318;98844;-85
2022/12/27 00:37:13;;;;;;;36.00;16.90;;;;;;;4.75;92.12;98657.36;87287;1313;22549;-85
2022/12/27 00:39:14;;;;;;;25.40;16.00;;;;;;;4.72;92.10;98656.27;87138;1309;23110;-84
2022/12/27 00:41:17;;;;;;;33.70;17.90;;;;;;;4.69;92.24;98658.94;87142;1313;97655;-86
2022/12/27 00:43:21;;;;;;;36.50;16.70;;;;;;;4.67;92.11;98657.09;87148;1315;25211;-86
2022/12/27 00:45:22;;;;;;;38.50;17.00;;;;;;;4.64;92.12;98655.61;87267;1314;22611;-86
2022/12/27 00:47:24;;;;;;;102.90;22.90;;;;;;;4.61;92.28;98654.65;87092;1315;99512;-87
2022/12/27 00:49:26;;;;;;;32.10;17.40;;;;;;;4.60;92.25;98651.55;87256;1315;23735;-87
2022/12/27 00:51:28;;;;;;;29.20;16.10;;;;;;;4.58;92.25;98654.23;87160;1313;102830;-84
2022/12/27 00:53:31;;;;;;;175.00;26.90;;;;;;;4.56;92.21;98654.97;87328;1319;23804;-85
2022/12/27 00:55:33;;;;;;;30.10;14.00;;;;;;;4.55;92.31;98651.89;87383;1313;22617;-85
2022/12/27 00:57:35;;;;;;;50.60;17.80;;;;;;;4.50;92.28;98634.46;87218;1320;98814;-87
2022/12/27 00:59:39;;;;;;;86.50;24.30;;;;;;;4.51;92.33;98632.13;87208;1315;25314;-87
2022/12/27 01:01:40;;;;;;;60.70;19.60;;;;;;;4.50;92.32;98626.27;87335;1312;22526;-86
2022/12/27 01:03:43;;;;;;;51.20;18.60;;;;;;;4.49;92.31;98626.64;87269;1309;98520;-86
2022/12/27 01:05:45;;;;;;;42.60;20.90;;;;;;;4.47;92.23;98622.71;87218;1314;22489;-87
2022/12/27 01:07:47;;;;;;;138.50;22.20;;;;;;;4.45;92.20;98625.88;87117;1315;22709;-86
2022/12/27 01:09:49;;;;;;;66.10;20.10;;;;;;;4.43;92.32;98624.88;87126;1315;98313;-86
2022/12/27 01:11:51;;;;;;;43.50;16.90;;;;;;;4.42;92.26;98628.41;87106;1321;24263;-86
2022/12/27 01:13:57;;;;;;;26.50;17.70;;;;;;;4.38;92.23;98620.18;87390;1313;25265;-87
2022/12/27 01:15:59;;;;;;;52.50;19.90;;;;;;;4.36;92.24;98613.10;87224;1303;98627;-86
2022/12/27 01:18:01;;;;;;;29.00;15.50;;;;;;;4.37;92.16;98617.77;87185;1322;22868;-83
2022/12/27 01:20:03;;;;;;;38.40;17.20;;;;;;;4.35;92.24;98615.23;87285;1309;22543;-85
2022/12/27 01:22:05;;;;;;;20.10;15.10;;;;;;;4.34;92.32;98622.58;87155;1317;98096;-86
2022/12/27 01:24:07;;;;;;;45.70;18.00;;;;;;;4.31;92.27;98617.42;87168;1320;22445;-85
2022/12/27 01:26:12;;;;;;;50.00;19.50;;;;;;;4.30;92.15;98618.52;87036;1316;23001;-86
2022/12/27 01:28:14;;;;;;;34.00;18.30;;;;;;;4.29;92.25;98618.17;87038;1298;98125;-85
2022/12/27 01:30:15;;;;;;;122.40;22.20;;;;;;;4.30;92.18;98612.77;87136;1315;22545;-86
2022/12/27 01:32:17;;;;;;;38.40;16.20;;;;;;;4.31;92.36;98608.55;87471;1313;23649;-86
2022/12/27 01:34:19;;;;;;;64.90;19.10;;;;;;;4.33;92.46;98609.55;87094;1306;98172;-85
2022/12/27 01:36:22;;;;;;;67.20;18.80;;;;;;;4.37;92.46;98601.27;87253;1314;22447;-87
2022/12/27 01:38:24;;;;;;;30.70;15.80;;;;;;;4.40;92.53;98598.54;87279;1313;22453;-86
2022/12/27 01:40:26;;;;;;;26.10;14.10;;;;;;;4.41;92.57;98594.52;87228;1318;98517;-85
2022/12/27 01:44:56;;;;;;;18.80;13.10;;;;;;;4.53;92.67;98587.38;87224;1313;22656;-84
2022/12/27 01:46:58;;;;;;;17.40;12.40;;;;;;;4.57;92.72;98591.96;87000;1297;99535;-84
2022/12/27 01:48:59;;;;;;;18.10;12.50;;;;;;;4.59;92.78;98595.55;87361;1311;22452;-83
2022/12/27 01:51:03;;;;;;;16.20;12.40;;;;;;;4.60;92.80;98600.39;87207;1313;22437;-84
2022/12/27 01:53:14;;;;;;;16.40;12.80;;;;;;;4.62;92.76;98601.38;87053;1315;98525;-84
2022/12/27 01:55:18;;;;;;;16.70;12.70;;;;;;;4.66;92.66;98604.56;87344;1306;22433;-83
2022/12/27 01:57:21;;;;;;;17.10;13.70;;;;;;;4.68;92.83;98600.16;87299;1319;22539;-85
2022/12/27 01:59:24;;;;;;;18.30;12.60;;;;;;;4.74;92.88;98590.75;87127;1312;98452;-83
2022/12/27 02:01:33;;;;;;;20.70;14.10;;;;;;;4.78;92.89;98587.86;87299;1316;23679;-83
2022/12/27 02:03:44;;;;;;;22.20;14.60;;;;;;;4.82;92.90;98596.77;87195;1309;98418;-83
2022/12/27 02:05:45;;;;;;;17.90;14.10;;;;;;;4.85;92.98;98603.46;87280;1313;24414;-84
2022/12/27 02:08:21;;;;;;;16.30;12.70;;;;;;;4.83;92.93;98594.84;87207;1291;22688;-84
2022/12/27 02:10:24;;;;;;;17.20;13.50;;;;;;;4.91;92.98;98602.23;87217;1313;98653;-82
2022/12/27 02:12:27;;;;;;;18.50;13.70;;;;;;;4.94;92.88;98604.74;87278;1298;22520;-83
2022/12/27 02:14:36;;;;;;;16.90;12.40;;;;;;;4.95;92.91;98598.27;87237;1320;22491;-85
2022/12/27 02:16:38;;;;;;;19.10;13.20;;;;;;;4.97;92.95;98603.10;87099;1307;97969;-85
2022/12/27 02:18:40;;;;;;;14.90;12.00;;;;;;;5.00;92.98;98599.00;87159;1316;22893;-84
2022/12/27 02:21:15;;;;;;;17.20;12.50;;;;;;;4.97;92.84;98594.57;87256;1299;22578;-85
2022/12/27 02:26:28;;;;;;;13.30;10.20;;;;;;;5.10;93.01;98608.27;87335;1304;22643;-85
2022/12/27 02:28:51;;;;;;;11.70;9.00;;;;;;;5.15;92.97;98607.60;87250;1313;97870;-86
2022/12/27 02:31:00;;;;;;;11.60;8.10;;;;;;;5.19;93.12;98612.49;87468;1306;22474;-86
2022/12/27 02:33:07;;;;;;;7.50;6.50;;;;;;;5.25;93.14;98612.13;87004;1318;22519;-85
2022/12/27 02:35:21;;;;;;;6.70;5.80;;;;;;;5.33;93.05;98610.64;87344;1314;97692;-87
2022/12/27 02:37:28;;;;;;;4.80;4.40;;;;;;;5.44;93.32;98617.77;87713;1304;22487;-86
2022/12/27 02:39:35;;;;;;;4.00;3.70;;;;;;;5.54;93.16;98614.14;87761;1305;97926;-84
2022/12/27 02:54:25;;;;;;;4.00;3.70;;;;;;;6.35;93.60;98624.78;88162;1306;22526;-85
2022/12/27 02:57:08;;;;;;;3.40;3.10;;;;;;;6.42;93.46;98632.88;87858;1310;22575;-88
2022/12/27 02:59:22;;;;;;;5.80;3.90;;;;;;;6.50;93.11;98631.03;87642;1305;97554;-87
2022/12/27 03:04:46;;;;;;;5.20;4.70;;;;;;;6.66;92.82;98650.18;87630;1293;97592;-83
2022/12/27 03:07:15;;;;;;;5.30;4.80;;;;;;;6.71;92.91;98658.55;87496;1316;22480;-88
2022/12/27 03:17:17;;;;;;;4.80;4.30;;;;;;;6.60;92.26;98639.06;87220;1319;97828;-87
2022/12/27 03:26:41;;;;;;;5.00;4.40;;;;;;;6.35;92.14;98643.96;87155;1313;22561;-85
2022/12/27 03:34:03;;;;;;;4.70;4.30;;;;;;;6.26;91.95;98684.07;87347;1312;97824;-85
2022/12/27 03:38:42;;;;;;;5.70;4.60;;;;;;;6.16;92.00;98696.98;87206;1312;22471;-86
2022/12/27 03:43:16;;;;;;;5.40;4.60;;;;;;;6.07;91.80;98698.34;87430;1312;22539;-86
2022/12/27 03:45:20;;;;;;;5.30;4.50;;;;;;;5.94;91.89;98682.42;87271;1315;22485;-88
2022/12/27 03:47:37;;;;;;;5.80;5.30;;;;;;;6.02;91.91;98702.87;87261;1315;97704;-87
2022/12/27 03:49:55;;;;;;;6.00;5.30;;;;;;;6.00;91.74;98705.39;87003;1313;22581;-84
2022/12/27 03:52:05;;;;;;;6.20;5.70;;;;;;;5.97;91.98;98713.51;87133;1320;98242;-84
2022/12/27 03:54:15;;;;;;;7.20;5.60;;;;;;;5.95;91.91;98722.59;87387;1317;22730;-87
2022/12/27 03:56:18;;;;;;;8.80;6.10;;;;;;;5.95;91.94;98729.60;87235;1314;25138;-85
2022/12/27 03:58:20;;;;;;;8.80;6.70;;;;;;;5.95;92.12;98734.30;87088;1315;97561;-85
2022/12/27 04:00:21;;;;;;;7.10;6.50;;;;;;;5.96;92.04;98738.61;87275;1290;23151;-84
2022/12/27 04:02:23;;;;;;;8.20;7.20;;;;;;;5.99;91.86;98740.67;87279;1313;22483;-86
2022/12/27 04:04:25;;;;;;;9.70;7.40;;;;;;;6.00;92.32;98744.64;86989;1297;97554;-83
2022/12/27 04:06:27;;;;;;;7.20;6.40;;;;;;;6.01;92.11;98750.01;87432;1313;22509;-86
2022/12/27 04:36:34;;;;;;;6.80;5.90;;;;;;;5.83;91.87;98783.16;87224;1319;22489;-86
2022/12/27 04:38:36;;;;;;;6.40;5.90;;;;;;;5.81;91.90;98790.54;87203;1300;22515;-87
2022/12/27 04:54:56;;;;;;;5.50;4.90;;;;;;;5.69;91.98;98822.29;87247;1319;22496;-85
2022/12/27 04:56:57;;;;;;;3.70;3.50;;;;;;;5.67;91.90;98831.61;87240;1303;22667;-83
2022/12/27 05:03:42;;;;;;;2.20;1.90;;;;;;;5.59;91.70;98835.14;87291;1317;22619;-85
2022/12/27 05:05:45;;;;;;;2.70;2.50;;;;;;;5.58;91.61;98838.16;87214;1312;97380;-86
2022/12/27 05:14:49;;;;;;;2.00;1.80;;;;;;;5.44;91.35;98847.27;87003;1309;22701;-87
2022/12/27 05:16:50;;;;;;;1.90;1.80;;;;;;;5.41;91.26;98857.65;87100;1298;97932;-85
2022/12/27 05:18:53;;;;;;;2.00;1.90;;;;;;;5.38;91.27;98861.40;86915;1315;22723;-86
2022/12/27 05:21:01;;;;;;;2.20;2.10;;;;;;;5.35;91.31;98867.21;87095;1310;22508;-86
2022/12/27 05:25:38;;;;;;;2.40;2.20;;;;;;;5.25;91.29;98874.46;86835;1319;25405;-86
2022/12/27 05:27:40;;;;;;;2.40;2.00;;;;;;;5.20;91.17;98871.11;87243;1313;22478;-85
2022/12/27 05:29:42;;;;;;;2.60;2.40;;;;;;;5.15;90.99;98869.35;86848;1306;97803;-85
2022/12/27 05:31:44;;;;;;;2.20;2.00;;;;;;;5.16;91.12;98875.06;86902;1284;22722;-85
2022/12/27 05:33:45;;;;;;;3.60;3.10;;;;;;;5.12;91.06;98881.81;87185;1316;22520;-86
2022/12/27 05:35:47;;;;;;;4.30;2.30;;;;;;;5.13;91.10;98888.21;87105;1301;97344;-85
2022/12/27 05:37:49;;;;;;;2.50;2.10;;;;;;;5.10;90.91;98887.96;87233;1313;23816;-86
2022/12/27 05:39:50;;;;;;;2.50;2.30;;;;;;;5.07;90.99;98896.04;87087;1321;98845;-85
2022/12/27 05:41:52;;;;;;;4.80;2.70;;;;;;;5.06;91.07;98899.91;87275;1315;22491;-84
2022/12/27 05:43:54;;;;;;;2.90;2.70;;;;;;;5.04;91.04;98910.05;87213;1319;22497;-84
2022/12/27 05:46:03;;;;;;;4.10;2.70;;;;;;;5.01;90.98;98907.36;86842;1314;98858;-85
2022/12/27 05:48:05;;;;;;;3.30;3.10;;;;;;;4.95;91.01;98905.60;87306;1304;22487;-84
2022/12/27 05:50:07;;;;;;;4.20;3.00;;;;;;;4.96;91.00;98915.83;87032;1313;24078;-83
2022/12/27 05:52:09;;;;;;;2.90;2.60;;;;;;;4.94;91.07;98921.09;87111;1313;98824;-82
2022/12/27 05:54:11;;;;;;;4.20;2.80;;;;;;;4.94;91.05;98927.38;87091;1315;22450;-81
2022/12/27 05:56:15;;;;;;;4.50;2.70;;;;;;;4.95;91.11;98931.89;87295;1313;22440;-86
2022/12/27 05:58:17;;;;;;;5.20;3.00;;;;;;;4.93;90.97;98935.75;87241;1291;98264;-82
2022/12/27 06:00:19;;;;;;;3.20;2.90;;;;;;;4.93;91.03;98941.87;87124;1319;22501;-86
2022/12/27 06:02:21;;;;;;;3.10;2.90;;;;;;;4.91;90.98;98955.14;87078;1310;22454;-85
2022/12/27 06:04:23;;;;;;;3.20;2.50;;;;;;;4.90;90.91;98968.77;87152;1316;97755;-85
2022/12/27 06:06:24;;;;;;;3.40;2.40;;;;;;;4.90;90.95;98984.08;87062;1310;22587;-82
2022/12/27 06:08:27;;;;;;;2.20;2.10;;;;;;;4.90;90.90;99000.78;87055;1317;22542;-84
2022/12/27 06:10:29;;;;;;;6.30;2.70;;;;;;;4.89;90.90;99012.82;87116;1313;98065;-85
2022/12/27 06:12:30;;;;;;;2.60;2.40;;;;;;;4.88;90.76;99024.85;87181;1314;22527;-84
2022/12/27 06:14:32;;;;;;;2.20;1.80;;;;;;;4.86;90.75;99030.13;87074;1313;22507;-80
2022/12/27 06:16:35;;;;;;;1.30;1.10;;;;;;;4.82;90.56;99045.56;87028;1314;97757;-84
2022/12/27 06:18:38;;;;;;;2.60;1.40;;;;;;;4.74;90.43;99051.13;87010;1299;22451;-84
2022/12/27 06:20:40;;;;;;;1.60;1.20;;;;;;;4.67;90.26;99065.23;86793;1298;24275;-83
2022/12/27 06:22:45;;;;;;;3.80;1.20;;;;;;;4.56;89.95;99065.45;86753;1313;97953;-84
2022/12/27 06:24:46;;;;;;;1.30;1.10;;;;;;;4.46;89.87;99060.45;87412;1292;23059;-84
2022/12/27 06:26:48;;;;;;;4.10;1.30;;;;;;;4.37;89.62;99063.63;86957;1296;22526;-83
2022/12/27 06:28:51;;;;;;;1.70;1.40;;;;;;;4.27;89.68;99069.21;86921;1310;98322;-81
2022/12/27 06:30:52;;;;;;;1.00;1.00;;;;;;;4.19;89.57;99077.36;87013;1314;22820;-81
2022/12/27 06:32:54;;;;;;;1.40;1.30;;;;;;;4.12;89.61;99095.09;86801;1297;22500;-81
2022/12/27 06:34:57;;;;;;;1.50;1.40;;;;;;;4.06;89.66;99097.64;86590;1300;97613;-80
2022/12/27 06:36:59;;;;;;;3.40;1.50;;;;;;;4.00;89.65;99105.59;86848;1313;22452;-81
2022/12/27 06:39:01;;;;;;;1.60;1.50;;;;;;;3.92;89.79;99115.14;86728;1298;22896;-81
2022/12/27 06:41:05;;;;;;;1.60;1.50;;;;;;;3.90;89.59;99128.02;86830;1307;97765;-80
2022/12/27 06:43:07;;;;;;;1.80;1.30;;;;;;;3.85;89.62;99135.77;86797;1298;22531;-81
2022/12/27 06:45:09;;;;;;;3.30;1.60;;;;;;;3.81;89.85;99138.61;86559;1313;22455;-78
2022/12/27 06:47:11;;;;;;;2.10;1.50;;;;;;;3.77;89.78;99145.48;86407;1296;97827;-79
2022/12/27 06:49:13;;;;;;;4.10;1.80;;;;;;;3.72;89.75;99151.29;86611;1294;22558;-78
2022/12/27 06:51:18;;;;;;;6.80;1.70;;;;;;;3.69;89.60;99160.73;86467;1289;22508;-79
2022/12/27 06:53:19;;;;;;;3.50;1.90;;;;;;;3.65;89.83;99164.62;86469;1290;97813;-78
2022/12/27 06:55:22;;;;;;;13.40;2.20;;;;;;;3.62;89.71;99167.29;86498;1290;22642;-77
2022/12/27 06:57:23;;;;;;;5.00;1.90;;;;;;;3.57;89.55;99166.48;86579;1294;22549;-77
2022/12/27 06:59:25;;;;;;;3.40;1.80;;;;;;;3.55;89.57;99174.85;86437;1291;99122;-78
2022/12/27 07:01:27;;;;;;;7.00;2.10;;;;;;;3.53;89.51;99176.63;86574;1285;22863;-77
2022/12/27 07:03:29;;;;;;;8.20;1.70;;;;;;;3.50;89.37;99190.76;86409;1296;22544;-78
2022/12/27 07:05:33;;;;;;;6.00;2.00;;;;;;;3.47;89.54;99198.27;86530;1288;98317;-77
2022/12/27 07:07:35;;;;;;;8.30;2.40;;;;;;;3.39;89.66;99199.27;86525;1291;22517;-78
2022/12/27 07:09:38;;;;;;;11.80;2.60;;;;;;;3.41;89.43;99212.42;86606;1290;22614;-78
2022/12/27 07:11:40;;;;;;;15.10;2.50;;;;;;;3.39;89.42;99221.67;86766;1287;98862;-77
2022/12/27 07:13:44;;;;;;;7.90;2.70;;;;;;;3.36;89.36;99224.31;86587;1294;22716;-79
2022/12/27 07:15:48;;;;;;;10.80;2.20;;;;;;;3.33;89.67;99228.20;86628;1297;22600;-78
2022/12/27 07:17:50;;;;;;;7.40;2.20;;;;;;;3.30;89.36;99231.16;86413;1291;99119;-79
2022/12/27 07:19:51;;;;;;;6.20;2.20;;;;;;;3.29;89.42;99235.38;86728;1291;22455;-79
2022/12/27 07:21:53;;;;;;;7.60;2.40;;;;;;;3.26;89.38;99243.05;86609;1307;22811;-78
2022/12/27 07:23:55;;;;;;;7.70;2.40;;;;;;;3.24;89.28;99242.20;86842;1297;22520;-78
2022/12/27 07:26:05;;;;;;;11.60;2.40;;;;;;;3.23;89.20;99246.55;86647;1299;22501;-79
2022/12/27 07:28:06;;;;;;;9.30;2.20;;;;;;;3.22;89.52;99260.11;86600;1291;98414;-78
2022/12/27 07:30:08;;;;;;;13.60;2.60;;;;;;;3.22;89.47;99264.99;86707;1289;22481;-78
2022/12/27 07:32:10;;;;;;;6.90;2.30;;;;;;;3.20;89.36;99270.39;86764;1302;22913;-80
2022/12/27 07:34:13;;;;;;;10.10;3.00;;;;;;;3.20;89.32;99277.33;86642;1283;98193;-79
2022/12/27 07:36:18;;;;;;;9.70;2.60;;;;;;;3.19;89.46;99279.25;86953;1291;22512;-78
2022/12/27 07:38:20;;;;;;;17.50;2.80;;;;;;;3.20;89.29;99278.55;86928;1297;22498;-80
2022/12/27 07:40:22;;;;;;;12.30;3.00;;;;;;;3.16;89.14;99271.83;86722;1291;97881;-80
2022/12/27 07:42:23;;;;;;;19.30;3.70;;;;;;;3.18;89.22;99280.65;86827;1298;22479;-78
2022/12/27 07:44:25;;;;;;;10.50;3.30;;;;;;;3.16;89.46;99293.89;86867;1313;25793;-79
2022/12/27 07:46:27;;;;;;;13.80;2.90;;;;;;;3.16;89.56;99300.48;86559;1293;97722;-79
2022/12/27 07:48:28;;;;;;;12.00;3.80;;;;;;;3.15;89.41;99300.84;86656;1292;23841;-78
2022/12/27 07:50:30;;;;;;;17.10;4.40;;;;;;;3.14;89.60;99309.70;86474;1304;22580;-78
2022/12/27 07:52:32;;;;;;;15.20;4.80;;;;;;;3.14;89.55;99313.52;86650;1300;98932;-79
2022/12/27 07:54:34;;;;;;;17.70;4.10;;;;;;;3.13;89.66;99315.64;86558;1298;22965;-78
2022/12/27 07:56:36;;;;;;;18.60;5.40;;;;;;;3.12;89.73;99321.53;86824;1297;22501;-80
2022/12/27 07:58:40;;;;;;;14.10;4.40;;;;;;;3.12;89.33;99328.14;86720;1287;97815;-80
2022/12/27 08:00:44;;;;;;;16.40;4.90;;;;;;;3.12;89.35;99328.83;86845;1309;22477;-79
2022/12/27 08:02:46;;;;;;;24.60;4.20;;;;;;;3.12;89.48;99331.97;86732;1294;22443;-79
2022/12/27 08:04:48;;;;;;;9.70;3.50;;;;;;;3.13;89.44;99339.41;86626;1306;97861;-79
2022/12/27 08:06:49;;;;;;;15.00;3.80;;;;;;;3.12;89.44;99343.94;86741;1312;22677;-80
2022/12/27 08:08:52;;;;;;;12.60;3.80;;;;;;;3.11;89.22;99351.23;86741;1302;24300;-80
2022/12/27 08:10:54;;;;;;;12.60;3.70;;;;;;;3.10;89.25;99356.98;86641;1296;98493;-78
2022/12/27 08:12:56;;;;;;;7.50;3.20;;;;;;;3.09;89.48;99362.73;86813;1289;24279;-79
2022/12/27 08:14:58;;;;;;;22.30;5.10;;;;;;;3.04;89.58;99361.91;86695;1306;22505;-81
2022/12/27 08:17:20;;;;;;;13.10;3.60;;;;;;;3.02;89.37;99363.69;86814;1301;97603;-79
2022/12/27 08:19:22;;;;;;;13.00;3.60;;;;;;;3.02;89.41;99370.80;86702;1303;22552;-80
2022/12/27 08:21:24;;;;;;;12.00;3.20;;;;;;;2.99;89.21;99372.03;86916;1293;22470;-79
2022/12/27 08:23:26;;;;;;;12.80;3.80;;;;;;;2.97;89.20;99383.70;86618;1296;98386;-80
2022/12/27 08:25:28;;;;;;;14.10;3.40;;;;;;;2.96;89.23;99392.90;86833;1296;22503;-77
2022/12/27 08:27:29;;;;;;;8.00;3.20;;;;;;;2.93;89.41;99389.46;86922;1295;22576;-79
2022/12/27 08:29:32;;;;;;;13.50;3.20;;;;;;;2.95;89.12;99397.61;86761;1298;98189;-79
2022/12/27 08:31:33;;;;;;;13.10;3.80;;;;;;;2.92;89.27;99392.09;86828;1297;22620;-79
2022/12/27 08:33:37;;;;;;;7.70;3.30;;;;;;;2.93;89.12;99400.39;86854;1294;22519;-80
2022/12/27 08:35:42;;;;;;;6.40;2.80;;;;;;;2.93;89.13;99402.48;86658;1297;98055;-78
2022/12/27 08:37:46;;;;;;;10.10;3.20;;;;;;;2.92;88.98;99404.58;86803;1299;26290;-80
2022/12/27 08:39:48;;;;;;;19.90;3.60;;;;;;;2.90;88.74;99404.92;86945;1298;24429;-81
2022/12/27 08:41:52;;;;;;;14.60;3.40;;;;;;;2.90;88.81;99406.33;86671;1301;98425;-80
2022/12/27 08:43:54;;;;;;;15.10;4.40;;;;;;;2.90;89.05;99406.31;86758;1312;22688;-79
2022/12/27 08:46:04;;;;;;;10.70;3.60;;;;;;;2.93;88.82;99402.66;86970;1295;22484;-79
2022/12/27 08:48:06;;;;;;;16.70;4.80;;;;;;;2.92;89.12;99396.77;86797;1296;22523;-79
2022/12/27 08:50:08;;;;;;;11.30;3.70;;;;;;;2.97;88.91;99407.14;87008;1293;22435;-77
2022/12/27 08:52:09;;;;;;;17.40;4.50;;;;;;;2.97;89.06;99400.89;86640;1298;98043;-80
2022/12/27 08:54:11;;;;;;;12.10;3.50;;;;;;;3.06;89.00;99411.38;86785;1298;24409;-79
2022/12/27 08:56:13;;;;;;;15.20;3.60;;;;;;;3.16;89.11;99415.43;86772;1302;22482;-79
2022/12/27 08:58:15;;;;;;;16.70;4.30;;;;;;;3.26;89.15;99416.02;86916;1301;98190;-79
2022/12/27 09:00:17;;;;;;;15.50;4.50;;;;;;;3.37;89.02;99421.27;86869;1295;22425;-79
2022/12/27 09:02:19;;;;;;;13.90;4.50;;;;;;;3.43;89.01;99419.80;86823;1296;22601;-80
2022/12/27 09:04:21;;;;;;;19.00;4.40;;;;;;;3.47;88.99;99418.38;86656;1308;98349;-79
2022/12/27 09:06:23;;;;;;;27.50;4.00;;;;;;;3.53;88.79;99422.48;86992;1295;25425;-79
2022/12/27 09:08:25;;;;;;;9.10;4.30;;;;;;;3.59;88.73;99421.35;86849;1289;22625;-78
2022/12/27 09:10:27;;;;;;;10.80;4.20;;;;;;;3.68;88.97;99421.59;86613;1296;98311;-78
2022/12/27 09:12:31;;;;;;;10.80;4.40;;;;;;;3.73;88.74;99428.13;86791;1297;22531;-79
2022/12/27 09:14:33;;;;;;;17.70;4.70;;;;;;;3.74;88.48;99433.67;86785;1297;22865;-79
2022/12/27 09:16:35;;;;;;;15.00;4.30;;;;;;;3.72;88.29;99442.05;86781;1303;98091;-78
2022/12/27 09:18:38;;;;;;;8.50;3.60;;;;;;;3.68;88.08;99442.43;86814;1294;23472;-80
2022/12/27 09:20:39;;;;;;;8.80;3.40;;;;;;;3.63;88.03;99448.41;86862;1299;22575;-81
2022/12/27 09:22:41;;;;;;;9.70;4.40;;;;;;;3.57;87.50;99450.91;86672;1302;97568;-79
2022/12/27 09:24:43;;;;;;;7.80;3.30;;;;;;;3.53;87.91;99457.73;86875;1293;22549;-77
2022/12/27 09:26:45;;;;;;;11.00;4.00;;;;;;;3.49;87.63;99460.39;86844;1296;22501;-79
2022/12/27 09:28:47;;;;;;;8.50;4.10;;;;;;;3.47;87.81;99460.08;86727;1289;97918;-77
2022/12/27 09:30:49;;;;;;;16.40;4.80;;;;;;;3.44;87.80;99458.89;86765;1291;24021;-78
2022/12/27 09:32:51;;;;;;;9.40;4.60;;;;;;;3.40;87.60;99455.98;86758;1296;22720;-79
2022/12/27 09:34:53;;;;;;;15.80;4.00;;;;;;;3.38;87.69;99452.00;86642;1297;98357;-78
2022/12/27 09:36:55;;;;;;;16.50;3.90;;;;;;;3.39;87.94;99448.01;86762;1286;22453;-78
2022/12/27 09:38:58;;;;;;;13.10;4.10;;;;;;;3.42;87.86;99447.43;86628;1299;22622;-78
2022/12/27 09:41:03;;;;;;;9.00;3.90;;;;;;;3.45;87.71;99450.19;86642;1300;98881;-78
2022/12/27 09:43:07;;;;;;;11.90;4.30;;;;;;;3.49;87.78;99451.71;86735;1294;24254;-78
2022/12/27 09:45:20;;;;;;;9.90;4.10;;;;;;;3.54;87.95;99453.55;86676;1299;22517;-78
2022/12/27 09:47:24;;;;;;;13.90;4.20;;;;;;;3.63;87.74;99450.66;86779;1288;98684;-79
2022/12/27 09:49:34;;;;;;;17.80;4.60;;;;;;;3.61;87.72;99446.35;86876;1287;24236;-78
2022/12/27 09:51:46;;;;;;;14.40;5.10;;;;;;;3.67;88.00;99451.83;86842;1296;22548;-77
2022/12/27 09:53:57;;;;;;;23.60;4.30;;;;;;;3.78;88.05;99454.65;86649;1289;97721;-76
2022/12/27 09:55:59;;;;;;;15.30;4.50;;;;;;;3.88;87.88;99457.13;86914;1295;22648;-79
2022/12/27 09:58:59;;;;;;;12.60;4.10;;;;;;;3.91;87.60;99461.44;86775;1297;22530;-78
2022/12/27 10:01:01;;;;;;;13.40;4.40;;;;;;;3.92;87.56;99465.06;86804;1300;22503;-77
2022/12/27 10:03:05;;;;;;;22.30;5.00;;;;;;;3.92;87.65;99467.33;86624;1299;24235;-78
2022/12/27 10:05:17;;;;;;;14.80;4.40;;;;;;;3.88;87.49;99460.95;86624;1302;98046;-77
2022/12/27 10:07:36;;;;;;;15.40;4.20;;;;;;;3.93;87.36;99468.02;86713;1314;23120;-76
2022/12/27 10:09:38;;;;;;;10.10;4.20;;;;;;;3.91;87.18;99461.77;86636;1293;23599;-77
2022/12/27 10:11:57;;;;;;;12.80;4.60;;;;;;;3.88;87.23;99465.13;86647;1300;98899;-77
2022/12/27 10:14:19;;;;;;;9.00;4.60;;;;;;;3.84;87.32;99462.73;86499;1302;24287;-78
2022/12/27 10:16:23;;;;;;;;;;;;;;;3.81;87.19;99463.83;86445;1304;97826;-77
2022/12/27 10:18:46;;;;;;;12.80;3.90;;;;;;;3.78;87.12;99463.52;86566;1298;22612;-78
2022/12/27 10:21:02;;;;;;;10.70;4.50;;;;;;;3.75;87.11;99472.08;86672;1293;22558;-78
2022/12/27 10:23:09;;;;;;;12.40;4.50;;;;;;;3.84;87.46;99474.05;86524;1299;97835;-77
2022/12/27 10:25:13;;;;;;;6.80;4.00;;;;;;;3.87;87.25;99478.35;86421;1299;26496;-78
2022/12/27 10:27:20;;;;;;;13.10;4.90;;;;;;;3.84;87.20;99485.16;86428;1302;24259;-77
2022/12/27 10:29:24;;;;;;;11.00;4.60;;;;;;;3.82;87.17;99480.33;86300;1297;98508;-78
2022/12/27 10:31:27;;;;;;;17.10;4.70;;;;;;;3.80;87.02;99477.40;86512;1293;22508;-78
2022/12/27 10:33:31;;;;;;;16.10;4.40;;;;;;;3.76;87.04;99471.20;86452;1303;22663;-79
2022/12/27 10:35:33;;;;;;;13.40;4.30;;;;;;;3.78;87.06;99469.60;86595;1294;99531;-78
2022/12/27 10:37:34;;;;;;;10.80;5.30;;;;;;;3.76;86.96;99469.11;86897;1303;24257;-79
2022/12/27 10:39:37;;;;;;;14.10;4.10;;;;;;;3.74;86.94;99471.21;86858;1298;22450;-80
2022/12/27 10:41:48;;;;;;;10.80;3.60;;;;;;;3.72;86.91;99467.23;86838;1288;98550;-76
2022/12/27 10:43:53;;;;;;;16.30;3.80;;;;;;;3.72;86.74;99465.68;87143;1312;24579;-79
2022/12/27 10:45:54;;;;;;;12.70;4.10;;;;;;;3.72;86.60;99460.11;86848;1299;27391;-80
2022/12/27 10:48:11;;;;;;;8.10;3.90;;;;;;;3.74;86.82;99460.79;86820;1296;98353;-79
2022/12/27 10:50:14;;;;;;;13.70;3.80;;;;;;;3.76;86.88;99460.06;86822;1296;22516;-80
2022/12/27 10:52:22;;;;;;;8.90;3.50;;;;;;;3.74;86.78;99458.35;86693;1296;98150;-77
2022/12/27 10:54:28;;;;;;;10.10;3.40;;;;;;;3.77;86.49;99465.44;86767;1294;22607;-77
2022/12/27 10:56:33;;;;;;;14.00;3.80;;;;;;;3.77;86.47;99464.74;86671;1297;25761;-77
2022/12/27 10:58:41;;;;;;;10.10;4.10;;;;;;;3.74;86.57;99463.73;86744;1295;97809;-78
2022/12/27 11:00:53;;;;;;;12.90;4.00;;;;;;;3.77;86.55;99464.05;86734;1290;22507;-78
2022/12/27 11:03:02;;;;;;;7.00;3.50;;;;;;;3.77;86.41;99464.41;86801;1290;22503;-77
2022/12/27 11:05:21;;;;;;;17.00;5.40;;;;;;;3.76;86.58;99459.73;86671;1296;97513;-77
2022/12/27 11:07:31;;;;;;;9.60;3.60;;;;;;;3.78;86.66;99454.30;86791;1294;22514;-76
2022/12/27 11:09:38;;;;;;;12.00;3.70;;;;;;;3.84;86.65;99449.36;86787;1293;24702;-77
2022/12/27 11:11:40;;;;;;;14.80;3.80;;;;;;;3.88;86.49;99455.73;86756;1290;97734;-77
2022/12/27 11:13:45;;;;;;;9.80;4.00;;;;;;;3.88;86.51;99451.57;86784;1297;22496;-78
2022/12/27 11:15:55;;;;;;;9.80;4.10;;;;;;;3.87;86.40;99454.38;86747;1287;22599;-76
2022/12/27 11:18:08;;;;;;;11.30;4.00;;;;;;;3.86;86.34;99457.00;86612;1296;189981;-76
2022/12/27 11:20:31;;;;;;;11.80;4.20;;;;;;;3.87;86.30;99452.10;86832;1290;24245;-77
2022/12/27 11:22:41;;;;;;;11.30;3.60;;;;;;;3.88;86.21;99455.04;86639;1296;98279;-78
2022/12/27 11:24:49;;;;;;;7.40;3.70;;;;;;;3.88;86.15;99455.91;86601;1296;22511;-77
2022/12/27 11:26:56;;;;;;;9.00;3.60;;;;;;;3.89;86.01;99457.80;86831;1295;22568;-77
2022/12/27 11:29:01;;;;;;;8.40;3.40;;;;;;;3.92;86.12;99454.81;86965;1296;97803;-78
2022/12/27 11:31:10;;;;;;;7.30;3.30;;;;;;;3.97;86.12;99456.48;86919;1281;23211;-77